sensor_id;sensor_type;location;lat;lon;timestamp;P1;durP1;ratioP1;P2;durP2;ratioP2
41799;SDS011;27468;47.460;19.034;2023-08-06T00:01:12;0.63;;;0.63;;
41799;SDS011;27468;47.460;19.034;2023-08-06T00:03:37;0.45;;;0.45;;
41799;SDS011;27468;47.460;19.034;2023-08-06T00:06:04;2.38;;;0.50;;
41799;SDS011;27468;47.460;19.034;2023-08-06T00:08:30;0.45;;;0.45;;
41799;SDS011;27468;47.460;19.034;2023-08-06T00:10:56;0.50;;;0.50;;
41799;SDS011;27468;47.460;19.034;2023-08-06T00:13:21;0.65;;;0.57;;
41799;SDS011;27468;47.460;19.034;2023-08-06T00:15:47;0.95;;;0.95;;
41799;SDS011;27468;47.460;19.034;2023-08-06T00:18:12;1.55;;;1.45;;
41799;SDS011;27468;47.460;19.034;2023-08-06T00:20:41;5.70;;;2.08;;
41799;SDS011;27468;47.460;19.034;2023-08-06T00:23:06;0.73;;;0.73;;
41799;SDS011;27468;47.460;19.034;2023-08-06T00:25:33;1.67;;;1.25;;
41799;SDS011;27468;47.460;19.034;2023-08-06T00:27:59;0.70;;;0.70;;
41799;SDS011;27468;47.460;19.034;2023-08-06T00:30:24;1.17;;;1.08;;
41799;SDS011;27468;47.460;19.034;2023-08-06T00:32:49;0.73;;;0.73;;
41799;SDS011;27468;47.460;19.034;2023-08-06T00:35:15;1.40;;;1.25;;
41799;SDS011;27468;47.460;19.034;2023-08-06T00:37:41;0.70;;;0.70;;
41799;SDS011;27468;47.460;19.034;2023-08-06T00:40:06;1.38;;;0.60;;
41799;SDS011;27468;47.460;19.034;2023-08-06T00:42:33;1.35;;;1.17;;
41799;SDS011;27468;47.460;19.034;2023-08-06T00:44:59;0.85;;;0.63;;
41799;SDS011;27468;47.460;19.034;2023-08-06T00:47:25;1.63;;;0.70;;
41799;SDS011;27468;47.460;19.034;2023-08-06T00:49:50;1.40;;;1.30;;
41799;SDS011;27468;47.460;19.034;2023-08-06T00:52:16;1.77;;;1.33;;
41799;SDS011;27468;47.460;19.034;2023-08-06T00:54:42;3.75;;;2.30;;
41799;SDS011;27468;47.460;19.034;2023-08-06T00:57:08;0.47;;;0.47;;
41799;SDS011;27468;47.460;19.034;2023-08-06T00:59:35;1.75;;;1.10;;
41799;SDS011;27468;47.460;19.034;2023-08-06T01:02:01;1.48;;;1.30;;
41799;SDS011;27468;47.460;19.034;2023-08-06T01:04:26;2.30;;;1.95;;
41799;SDS011;27468;47.460;19.034;2023-08-06T01:06:55;1.30;;;0.90;;
41799;SDS011;27468;47.460;19.034;2023-08-06T01:09:52;1.63;;;0.80;;
41799;SDS011;27468;47.460;19.034;2023-08-06T01:12:50;2.42;;;1.33;;
41799;SDS011;27468;47.460;19.034;2023-08-06T01:15:32;1.73;;;1.63;;
41799;SDS011;27468;47.460;19.034;2023-08-06T01:18:03;0.88;;;0.88;;
41799;SDS011;27468;47.460;19.034;2023-08-06T01:20:30;2.15;;;1.52;;
41799;SDS011;27468;47.460;19.034;2023-08-06T01:22:56;2.28;;;1.67;;
41799;SDS011;27468;47.460;19.034;2023-08-06T01:25:21;0.75;;;0.75;;
41799;SDS011;27468;47.460;19.034;2023-08-06T01:28:01;1.42;;;0.95;;
41799;SDS011;27468;47.460;19.034;2023-08-06T01:30:34;1.48;;;1.13;;
41799;SDS011;27468;47.460;19.034;2023-08-06T01:33:04;1.45;;;0.60;;
41799;SDS011;27468;47.460;19.034;2023-08-06T01:35:32;0.80;;;0.80;;
41799;SDS011;27468;47.460;19.034;2023-08-06T01:38:00;2.03;;;1.23;;
41799;SDS011;27468;47.460;19.034;2023-08-06T01:40:26;0.40;;;0.40;;
41799;SDS011;27468;47.460;19.034;2023-08-06T01:42:53;2.22;;;1.45;;
41799;SDS011;27468;47.460;19.034;2023-08-06T01:45:18;1.42;;;0.98;;
41799;SDS011;27468;47.460;19.034;2023-08-06T01:47:44;1.27;;;0.93;;
41799;SDS011;27468;47.460;19.034;2023-08-06T01:50:09;1.50;;;1.40;;
41799;SDS011;27468;47.460;19.034;2023-08-06T01:52:35;0.55;;;0.55;;
41799;SDS011;27468;47.460;19.034;2023-08-06T01:55:00;0.93;;;0.80;;
41799;SDS011;27468;47.460;19.034;2023-08-06T01:57:25;0.40;;;0.20;;
41799;SDS011;27468;47.460;19.034;2023-08-06T01:59:51;1.30;;;1.15;;
41799;SDS011;27468;47.460;19.034;2023-08-06T02:02:16;1.42;;;1.33;;
41799;SDS011;27468;47.460;19.034;2023-08-06T02:04:42;1.23;;;1.02;;
41799;SDS011;27468;47.460;19.034;2023-08-06T02:07:07;1.38;;;0.93;;
41799;SDS011;27468;47.460;19.034;2023-08-06T02:09:33;0.65;;;0.65;;
41799;SDS011;27468;47.460;19.034;2023-08-06T02:12:00;1.23;;;0.90;;
41799;SDS011;27468;47.460;19.034;2023-08-06T02:14:25;2.08;;;1.40;;
41799;SDS011;27468;47.460;19.034;2023-08-06T02:16:51;1.50;;;1.38;;
41799;SDS011;27468;47.460;19.034;2023-08-06T02:19:16;0.70;;;0.60;;
41799;SDS011;27468;47.460;19.034;2023-08-06T02:21:42;0.80;;;0.75;;
41799;SDS011;27468;47.460;19.034;2023-08-06T02:24:07;3.30;;;0.85;;
41799;SDS011;27468;47.460;19.034;2023-08-06T02:26:33;2.15;;;0.98;;
41799;SDS011;27468;47.460;19.034;2023-08-06T02:28:58;0.55;;;0.45;;
41799;SDS011;27468;47.460;19.034;2023-08-06T02:31:23;0.98;;;0.65;;
41799;SDS011;27468;47.460;19.034;2023-08-06T02:33:49;0.60;;;0.60;;
41799;SDS011;27468;47.460;19.034;2023-08-06T02:36:14;0.52;;;0.52;;
41799;SDS011;27468;47.460;19.034;2023-08-06T02:38:40;0.82;;;0.82;;
41799;SDS011;27468;47.460;19.034;2023-08-06T02:41:05;0.95;;;0.95;;
41799;SDS011;27468;47.460;19.034;2023-08-06T02:43:31;0.88;;;0.85;;
41799;SDS011;27468;47.460;19.034;2023-08-06T02:45:57;0.52;;;0.52;;
41799;SDS011;27468;47.460;19.034;2023-08-06T02:48:23;1.33;;;1.23;;
41799;SDS011;27468;47.460;19.034;2023-08-06T02:50:48;2.72;;;1.42;;
41799;SDS011;27468;47.460;19.034;2023-08-06T02:53:14;0.98;;;0.77;;
41799;SDS011;27468;47.460;19.034;2023-08-06T02:55:44;0.40;;;0.30;;
41799;SDS011;27468;47.460;19.034;2023-08-06T02:58:16;0.55;;;0.55;;
41799;SDS011;27468;47.460;19.034;2023-08-06T03:00:42;0.73;;;0.73;;
41799;SDS011;27468;47.460;19.034;2023-08-06T03:03:09;0.80;;;0.57;;
41799;SDS011;27468;47.460;19.034;2023-08-06T03:05:34;1.00;;;0.93;;
41799;SDS011;27468;47.460;19.034;2023-08-06T03:08:00;0.90;;;0.30;;
41799;SDS011;27468;47.460;19.034;2023-08-06T03:10:25;0.63;;;0.63;;
41799;SDS011;27468;47.460;19.034;2023-08-06T03:12:50;0.80;;;0.80;;
41799;SDS011;27468;47.460;19.034;2023-08-06T03:15:16;1.33;;;1.00;;
41799;SDS011;27468;47.460;19.034;2023-08-06T03:17:41;0.73;;;0.73;;
41799;SDS011;27468;47.460;19.034;2023-08-06T03:20:07;2.55;;;0.65;;
41799;SDS011;27468;47.460;19.034;2023-08-06T03:22:32;2.42;;;1.52;;
41799;SDS011;27468;47.460;19.034;2023-08-06T03:24:58;0.93;;;0.93;;
41799;SDS011;27468;47.460;19.034;2023-08-06T03:27:23;1.85;;;1.27;;
41799;SDS011;27468;47.460;19.034;2023-08-06T03:29:49;0.45;;;0.45;;
41799;SDS011;27468;47.460;19.034;2023-08-06T03:32:15;0.57;;;0.52;;
41799;SDS011;27468;47.460;19.034;2023-08-06T03:34:41;1.17;;;0.90;;
41799;SDS011;27468;47.460;19.034;2023-08-06T03:37:06;7.82;;;0.65;;
41799;SDS011;27468;47.460;19.034;2023-08-06T03:39:31;3.40;;;1.50;;
41799;SDS011;27468;47.460;19.034;2023-08-06T03:41:57;0.75;;;0.73;;
41799;SDS011;27468;47.460;19.034;2023-08-06T03:44:22;4.80;;;1.08;;
41799;SDS011;27468;47.460;19.034;2023-08-06T03:46:48;1.80;;;0.82;;
41799;SDS011;27468;47.460;19.034;2023-08-06T03:49:13;1.13;;;1.13;;
41799;SDS011;27468;47.460;19.034;2023-08-06T03:51:38;1.23;;;0.73;;
41799;SDS011;27468;47.460;19.034;2023-08-06T03:54:04;1.20;;;1.20;;
41799;SDS011;27468;47.460;19.034;2023-08-06T03:56:29;0.63;;;0.47;;
41799;SDS011;27468;47.460;19.034;2023-08-06T03:58:54;0.57;;;0.57;;
41799;SDS011;27468;47.460;19.034;2023-08-06T04:01:20;0.65;;;0.65;;
41799;SDS011;27468;47.460;19.034;2023-08-06T04:03:45;0.68;;;0.68;;
41799;SDS011;27468;47.460;19.034;2023-08-06T04:06:10;0.55;;;0.55;;
41799;SDS011;27468;47.460;19.034;2023-08-06T04:08:36;0.85;;;0.73;;
41799;SDS011;27468;47.460;19.034;2023-08-06T04:11:01;0.57;;;0.55;;
41799;SDS011;27468;47.460;19.034;2023-08-06T04:13:27;2.80;;;0.63;;
41799;SDS011;27468;47.460;19.034;2023-08-06T04:15:52;0.50;;;0.50;;
41799;SDS011;27468;47.460;19.034;2023-08-06T04:18:18;0.25;;;0.25;;
41799;SDS011;27468;47.460;19.034;2023-08-06T04:20:47;0.75;;;0.65;;
41799;SDS011;27468;47.460;19.034;2023-08-06T04:23:14;0.40;;;0.38;;
41799;SDS011;27468;47.460;19.034;2023-08-06T04:25:40;1.10;;;0.85;;
41799;SDS011;27468;47.460;19.034;2023-08-06T04:28:05;1.85;;;0.85;;
41799;SDS011;27468;47.460;19.034;2023-08-06T04:30:31;0.40;;;0.40;;
41799;SDS011;27468;47.460;19.034;2023-08-06T04:32:56;1.10;;;1.00;;
41799;SDS011;27468;47.460;19.034;2023-08-06T04:35:23;0.77;;;0.77;;
41799;SDS011;27468;47.460;19.034;2023-08-06T04:37:48;0.38;;;0.30;;
41799;SDS011;27468;47.460;19.034;2023-08-06T04:40:14;3.22;;;1.50;;
41799;SDS011;27468;47.460;19.034;2023-08-06T04:42:39;1.92;;;1.48;;
41799;SDS011;27468;47.460;19.034;2023-08-06T04:45:05;2.00;;;0.77;;
41799;SDS011;27468;47.460;19.034;2023-08-06T04:47:31;0.63;;;0.45;;
41799;SDS011;27468;47.460;19.034;2023-08-06T04:49:56;0.40;;;0.30;;
41799;SDS011;27468;47.460;19.034;2023-08-06T04:52:21;0.30;;;0.30;;
41799;SDS011;27468;47.460;19.034;2023-08-06T04:54:47;0.30;;;0.30;;
41799;SDS011;27468;47.460;19.034;2023-08-06T04:57:12;0.10;;;0.10;;
41799;SDS011;27468;47.460;19.034;2023-08-06T04:59:38;0.17;;;0.17;;
41799;SDS011;27468;47.460;19.034;2023-08-06T05:02:04;0.10;;;0.10;;
41799;SDS011;27468;47.460;19.034;2023-08-06T05:04:29;0.10;;;0.10;;
41799;SDS011;27468;47.460;19.034;2023-08-06T05:06:55;0.00;;;0.00;;
41799;SDS011;27468;47.460;19.034;2023-08-06T05:09:20;0.10;;;0.10;;
41799;SDS011;27468;47.460;19.034;2023-08-06T05:11:46;0.43;;;0.43;;
41799;SDS011;27468;47.460;19.034;2023-08-06T05:14:12;0.95;;;0.45;;
41799;SDS011;27468;47.460;19.034;2023-08-06T05:16:39;1.17;;;0.45;;
41799;SDS011;27468;47.460;19.034;2023-08-06T05:19:04;0.00;;;0.00;;
41799;SDS011;27468;47.460;19.034;2023-08-06T05:21:29;0.00;;;0.00;;
41799;SDS011;27468;47.460;19.034;2023-08-06T05:23:55;0.00;;;0.00;;
41799;SDS011;27468;47.460;19.034;2023-08-06T05:26:20;2.60;;;0.65;;
41799;SDS011;27468;47.460;19.034;2023-08-06T05:28:46;0.05;;;0.05;;
41799;SDS011;27468;47.460;19.034;2023-08-06T05:31:11;0.00;;;0.00;;
41799;SDS011;27468;47.460;19.034;2023-08-06T05:33:37;0.08;;;0.08;;
41799;SDS011;27468;47.460;19.034;2023-08-06T05:36:02;0.35;;;0.20;;
41799;SDS011;27468;47.460;19.034;2023-08-06T05:38:29;0.17;;;0.17;;
41799;SDS011;27468;47.460;19.034;2023-08-06T05:40:55;0.10;;;0.10;;
41799;SDS011;27468;47.460;19.034;2023-08-06T05:43:21;0.25;;;0.05;;
41799;SDS011;27468;47.460;19.034;2023-08-06T05:45:49;0.00;;;0.00;;
41799;SDS011;27468;47.460;19.034;2023-08-06T05:48:15;0.00;;;0.00;;
41799;SDS011;27468;47.460;19.034;2023-08-06T05:50:40;0.00;;;0.00;;
41799;SDS011;27468;47.460;19.034;2023-08-06T05:53:06;0.00;;;0.00;;
41799;SDS011;27468;47.460;19.034;2023-08-06T05:55:32;0.00;;;0.00;;
41799;SDS011;27468;47.460;19.034;2023-08-06T05:57:58;0.00;;;0.00;;
41799;SDS011;27468;47.460;19.034;2023-08-06T06:00:23;0.00;;;0.00;;
41799;SDS011;27468;47.460;19.034;2023-08-06T06:02:49;0.00;;;0.00;;
41799;SDS011;27468;47.460;19.034;2023-08-06T06:05:14;0.00;;;0.00;;
41799;SDS011;27468;47.460;19.034;2023-08-06T06:07:39;0.00;;;0.00;;
41799;SDS011;27468;47.460;19.034;2023-08-06T06:10:05;0.00;;;0.00;;
41799;SDS011;27468;47.460;19.034;2023-08-06T06:12:31;0.00;;;0.00;;
41799;SDS011;27468;47.460;19.034;2023-08-06T06:14:56;0.00;;;0.00;;
41799;SDS011;27468;47.460;19.034;2023-08-06T06:17:22;0.05;;;0.05;;
41799;SDS011;27468;47.460;19.034;2023-08-06T06:19:47;0.08;;;0.08;;
41799;SDS011;27468;47.460;19.034;2023-08-06T06:22:13;0.00;;;0.00;;
41799;SDS011;27468;47.460;19.034;2023-08-06T06:24:39;0.00;;;0.00;;
41799;SDS011;27468;47.460;19.034;2023-08-06T06:27:04;0.08;;;0.08;;
41799;SDS011;27468;47.460;19.034;2023-08-06T06:29:30;0.32;;;0.32;;
41799;SDS011;27468;47.460;19.034;2023-08-06T06:31:55;0.03;;;0.00;;
41799;SDS011;27468;47.460;19.034;2023-08-06T06:34:20;0.20;;;0.20;;
41799;SDS011;27468;47.460;19.034;2023-08-06T06:36:47;0.05;;;0.05;;
41799;SDS011;27468;47.460;19.034;2023-08-06T06:39:12;0.25;;;0.10;;
41799;SDS011;27468;47.460;19.034;2023-08-06T06:41:37;0.00;;;0.00;;
41799;SDS011;27468;47.460;19.034;2023-08-06T06:44:03;0.00;;;0.00;;
41799;SDS011;27468;47.460;19.034;2023-08-06T06:46:28;0.00;;;0.00;;
41799;SDS011;27468;47.460;19.034;2023-08-06T06:48:54;0.00;;;0.00;;
41799;SDS011;27468;47.460;19.034;2023-08-06T06:51:19;0.20;;;0.20;;
41799;SDS011;27468;47.460;19.034;2023-08-06T06:53:44;0.10;;;0.10;;
41799;SDS011;27468;47.460;19.034;2023-08-06T06:56:10;0.13;;;0.13;;
41799;SDS011;27468;47.460;19.034;2023-08-06T06:58:35;0.00;;;0.00;;
41799;SDS011;27468;47.460;19.034;2023-08-06T07:01:01;0.00;;;0.00;;
41799;SDS011;27468;47.460;19.034;2023-08-06T07:03:26;0.28;;;0.17;;
41799;SDS011;27468;47.460;19.034;2023-08-06T07:05:51;0.00;;;0.00;;
41799;SDS011;27468;47.460;19.034;2023-08-06T07:08:21;0.10;;;0.10;;
41799;SDS011;27468;47.460;19.034;2023-08-06T07:10:47;0.20;;;0.20;;
41799;SDS011;27468;47.460;19.034;2023-08-06T07:13:12;0.00;;;0.00;;
41799;SDS011;27468;47.460;19.034;2023-08-06T07:15:38;0.10;;;0.10;;
41799;SDS011;27468;47.460;19.034;2023-08-06T07:18:03;0.20;;;0.15;;
41799;SDS011;27468;47.460;19.034;2023-08-06T07:20:28;0.00;;;0.00;;
41799;SDS011;27468;47.460;19.034;2023-08-06T07:22:56;0.00;;;0.00;;
41799;SDS011;27468;47.460;19.034;2023-08-06T07:25:22;0.30;;;0.08;;
41799;SDS011;27468;47.460;19.034;2023-08-06T07:27:47;0.00;;;0.00;;
41799;SDS011;27468;47.460;19.034;2023-08-06T07:30:13;0.00;;;0.00;;
41799;SDS011;27468;47.460;19.034;2023-08-06T07:32:38;0.00;;;0.00;;
41799;SDS011;27468;47.460;19.034;2023-08-06T07:35:04;0.00;;;0.00;;
41799;SDS011;27468;47.460;19.034;2023-08-06T07:37:29;0.00;;;0.00;;
41799;SDS011;27468;47.460;19.034;2023-08-06T07:39:55;0.00;;;0.00;;
41799;SDS011;27468;47.460;19.034;2023-08-06T07:42:21;0.00;;;0.00;;
41799;SDS011;27468;47.460;19.034;2023-08-06T07:45:05;0.00;;;0.00;;
41799;SDS011;27468;47.460;19.034;2023-08-06T07:47:30;0.00;;;0.00;;
41799;SDS011;27468;47.460;19.034;2023-08-06T07:49:56;0.00;;;0.00;;
41799;SDS011;27468;47.460;19.034;2023-08-06T07:52:21;0.00;;;0.00;;
41799;SDS011;27468;47.460;19.034;2023-08-06T07:54:47;0.10;;;0.10;;
41799;SDS011;27468;47.460;19.034;2023-08-06T07:57:12;0.00;;;0.00;;
41799;SDS011;27468;47.460;19.034;2023-08-06T07:59:38;0.00;;;0.00;;
41799;SDS011;27468;47.460;19.034;2023-08-06T08:02:04;0.00;;;0.00;;
41799;SDS011;27468;47.460;19.034;2023-08-06T08:04:30;0.00;;;0.00;;
41799;SDS011;27468;47.460;19.034;2023-08-06T08:06:56;0.10;;;0.10;;
41799;SDS011;27468;47.460;19.034;2023-08-06T08:09:21;0.00;;;0.00;;
41799;SDS011;27468;47.460;19.034;2023-08-06T08:11:47;0.00;;;0.00;;
41799;SDS011;27468;47.460;19.034;2023-08-06T08:14:12;0.00;;;0.00;;
41799;SDS011;27468;47.460;19.034;2023-08-06T08:16:37;0.00;;;0.00;;
41799;SDS011;27468;47.460;19.034;2023-08-06T08:19:03;0.00;;;0.00;;
41799;SDS011;27468;47.460;19.034;2023-08-06T08:21:29;0.00;;;0.00;;
41799;SDS011;27468;47.460;19.034;2023-08-06T08:23:54;0.00;;;0.00;;
41799;SDS011;27468;47.460;19.034;2023-08-06T08:26:20;0.00;;;0.00;;
41799;SDS011;27468;47.460;19.034;2023-08-06T08:28:45;0.00;;;0.00;;
41799;SDS011;27468;47.460;19.034;2023-08-06T08:31:11;0.43;;;0.32;;
41799;SDS011;27468;47.460;19.034;2023-08-06T08:33:39;0.03;;;0.03;;
41799;SDS011;27468;47.460;19.034;2023-08-06T08:36:04;2.17;;;0.10;;
41799;SDS011;27468;47.460;19.034;2023-08-06T08:38:29;0.10;;;0.10;;
41799;SDS011;27468;47.460;19.034;2023-08-06T08:40:55;0.10;;;0.10;;
41799;SDS011;27468;47.460;19.034;2023-08-06T08:43:21;0.00;;;0.00;;
41799;SDS011;27468;47.460;19.034;2023-08-06T08:45:49;0.00;;;0.00;;
41799;SDS011;27468;47.460;19.034;2023-08-06T08:48:16;0.00;;;0.00;;
41799;SDS011;27468;47.460;19.034;2023-08-06T08:50:44;0.00;;;0.00;;
41799;SDS011;27468;47.460;19.034;2023-08-06T08:53:12;0.10;;;0.10;;
41799;SDS011;27468;47.460;19.034;2023-08-06T08:55:40;0.03;;;0.03;;
41799;SDS011;27468;47.460;19.034;2023-08-06T08:58:05;0.00;;;0.00;;
41799;SDS011;27468;47.460;19.034;2023-08-06T09:00:31;0.00;;;0.00;;
41799;SDS011;27468;47.460;19.034;2023-08-06T09:02:57;4.07;;;0.52;;
41799;SDS011;27468;47.460;19.034;2023-08-06T09:05:24;0.00;;;0.00;;
41799;SDS011;27468;47.460;19.034;2023-08-06T09:07:53;0.00;;;0.00;;
41799;SDS011;27468;47.460;19.034;2023-08-06T09:10:20;0.20;;;0.20;;
41799;SDS011;27468;47.460;19.034;2023-08-06T09:12:48;0.00;;;0.00;;
41799;SDS011;27468;47.460;19.034;2023-08-06T09:15:18;0.15;;;0.05;;
41799;SDS011;27468;47.460;19.034;2023-08-06T09:17:45;0.00;;;0.00;;
41799;SDS011;27468;47.460;19.034;2023-08-06T09:20:13;0.00;;;0.00;;
41799;SDS011;27468;47.460;19.034;2023-08-06T09:22:39;0.10;;;0.10;;
41799;SDS011;27468;47.460;19.034;2023-08-06T09:25:06;0.00;;;0.00;;
41799;SDS011;27468;47.460;19.034;2023-08-06T09:27:35;0.00;;;0.00;;
41799;SDS011;27468;47.460;19.034;2023-08-06T09:30:02;0.13;;;0.13;;
41799;SDS011;27468;47.460;19.034;2023-08-06T09:32:43;0.00;;;0.00;;
41799;SDS011;27468;47.460;19.034;2023-08-06T09:35:16;0.00;;;0.00;;
41799;SDS011;27468;47.460;19.034;2023-08-06T09:37:42;0.00;;;0.00;;
41799;SDS011;27468;47.460;19.034;2023-08-06T09:42:56;0.00;;;0.00;;
41799;SDS011;27468;47.460;19.034;2023-08-06T09:45:22;0.08;;;0.08;;
41799;SDS011;27468;47.460;19.034;2023-08-06T09:47:49;0.10;;;0.10;;
41799;SDS011;27468;47.460;19.034;2023-08-06T09:50:18;0.00;;;0.00;;
41799;SDS011;27468;47.460;19.034;2023-08-06T09:52:44;0.45;;;0.45;;
41799;SDS011;27468;47.460;19.034;2023-08-06T09:55:11;0.40;;;0.40;;
41799;SDS011;27468;47.460;19.034;2023-08-06T09:57:37;0.00;;;0.00;;
41799;SDS011;27468;47.460;19.034;2023-08-06T10:00:04;0.10;;;0.10;;
41799;SDS011;27468;47.460;19.034;2023-08-06T10:02:32;0.10;;;0.10;;
41799;SDS011;27468;47.460;19.034;2023-08-06T10:04:59;0.17;;;0.10;;
41799;SDS011;27468;47.460;19.034;2023-08-06T10:07:25;0.00;;;0.00;;
41799;SDS011;27468;47.460;19.034;2023-08-06T10:09:51;0.00;;;0.00;;
41799;SDS011;27468;47.460;19.034;2023-08-06T10:12:16;0.00;;;0.00;;
41799;SDS011;27468;47.460;19.034;2023-08-06T10:14:44;0.00;;;0.00;;
41799;SDS011;27468;47.460;19.034;2023-08-06T10:17:12;0.00;;;0.00;;
41799;SDS011;27468;47.460;19.034;2023-08-06T10:19:38;0.00;;;0.00;;
41799;SDS011;27468;47.460;19.034;2023-08-06T10:22:10;0.08;;;0.08;;
41799;SDS011;27468;47.460;19.034;2023-08-06T10:27:12;0.00;;;0.00;;
41799;SDS011;27468;47.460;19.034;2023-08-06T10:29:38;0.10;;;0.10;;
41799;SDS011;27468;47.460;19.034;2023-08-06T10:32:03;0.00;;;0.00;;
41799;SDS011;27468;47.460;19.034;2023-08-06T10:37:23;0.00;;;0.00;;
41799;SDS011;27468;47.460;19.034;2023-08-06T10:40:00;0.10;;;0.10;;
41799;SDS011;27468;47.460;19.034;2023-08-06T10:42:29;0.08;;;0.08;;
41799;SDS011;27468;47.460;19.034;2023-08-06T10:47:40;0.10;;;0.10;;
41799;SDS011;27468;47.460;19.034;2023-08-06T10:50:10;0.00;;;0.00;;
41799;SDS011;27468;47.460;19.034;2023-08-06T10:52:46;0.08;;;0.08;;
41799;SDS011;27468;47.460;19.034;2023-08-06T10:55:33;0.00;;;0.00;;
41799;SDS011;27468;47.460;19.034;2023-08-06T10:57:58;0.00;;;0.00;;
41799;SDS011;27468;47.460;19.034;2023-08-06T11:00:23;0.00;;;0.00;;
41799;SDS011;27468;47.460;19.034;2023-08-06T11:02:49;1.30;;;0.43;;
41799;SDS011;27468;47.460;19.034;2023-08-06T11:05:16;0.00;;;0.00;;
41799;SDS011;27468;47.460;19.034;2023-08-06T11:07:42;0.17;;;0.17;;
41799;SDS011;27468;47.460;19.034;2023-08-06T11:10:08;0.30;;;0.15;;
41799;SDS011;27468;47.460;19.034;2023-08-06T11:12:35;0.10;;;0.10;;
41799;SDS011;27468;47.460;19.034;2023-08-06T11:15:01;0.08;;;0.08;;
41799;SDS011;27468;47.460;19.034;2023-08-06T11:17:28;0.30;;;0.15;;
41799;SDS011;27468;47.460;19.034;2023-08-06T11:19:54;0.10;;;0.10;;
41799;SDS011;27468;47.460;19.034;2023-08-06T11:22:20;0.13;;;0.13;;
41799;SDS011;27468;47.460;19.034;2023-08-06T11:24:47;0.10;;;0.10;;
41799;SDS011;27468;47.460;19.034;2023-08-06T11:27:13;0.00;;;0.00;;
41799;SDS011;27468;47.460;19.034;2023-08-06T11:29:40;0.30;;;0.30;;
41799;SDS011;27468;47.460;19.034;2023-08-06T11:32:05;0.03;;;0.03;;
41799;SDS011;27468;47.460;19.034;2023-08-06T11:34:31;0.10;;;0.10;;
41799;SDS011;27468;47.460;19.034;2023-08-06T11:36:57;0.30;;;0.30;;
41799;SDS011;27468;47.460;19.034;2023-08-06T11:39:22;0.00;;;0.00;;
41799;SDS011;27468;47.460;19.034;2023-08-06T11:41:48;0.40;;;0.40;;
41799;SDS011;27468;47.460;19.034;2023-08-06T11:44:14;0.10;;;0.10;;
41799;SDS011;27468;47.460;19.034;2023-08-06T11:46:55;0.00;;;0.00;;
41799;SDS011;27468;47.460;19.034;2023-08-06T11:49:37;0.17;;;0.17;;
41799;SDS011;27468;47.460;19.034;2023-08-06T11:54:35;0.00;;;0.00;;
41799;SDS011;27468;47.460;19.034;2023-08-06T11:57:02;0.20;;;0.20;;
41799;SDS011;27468;47.460;19.034;2023-08-06T11:59:28;0.00;;;0.00;;
41799;SDS011;27468;47.460;19.034;2023-08-06T12:01:53;0.00;;;0.00;;
41799;SDS011;27468;47.460;19.034;2023-08-06T12:04:18;0.00;;;0.00;;
41799;SDS011;27468;47.460;19.034;2023-08-06T12:06:44;0.10;;;0.10;;
41799;SDS011;27468;47.460;19.034;2023-08-06T12:09:09;0.00;;;0.00;;
41799;SDS011;27468;47.460;19.034;2023-08-06T12:11:35;0.20;;;0.20;;
41799;SDS011;27468;47.460;19.034;2023-08-06T12:14:01;0.10;;;0.10;;
41799;SDS011;27468;47.460;19.034;2023-08-06T12:16:27;0.00;;;0.00;;
41799;SDS011;27468;47.460;19.034;2023-08-06T12:18:53;0.10;;;0.10;;
41799;SDS011;27468;47.460;19.034;2023-08-06T12:21:18;0.15;;;0.15;;
41799;SDS011;27468;47.460;19.034;2023-08-06T12:23:43;0.00;;;0.00;;
41799;SDS011;27468;47.460;19.034;2023-08-06T12:26:09;0.00;;;0.00;;
41799;SDS011;27468;47.460;19.034;2023-08-06T12:28:34;0.00;;;0.00;;
41799;SDS011;27468;47.460;19.034;2023-08-06T12:31:00;0.10;;;0.10;;
41799;SDS011;27468;47.460;19.034;2023-08-06T12:33:25;0.05;;;0.05;;
41799;SDS011;27468;47.460;19.034;2023-08-06T12:35:50;0.00;;;0.00;;
41799;SDS011;27468;47.460;19.034;2023-08-06T12:38:19;0.05;;;0.00;;
41799;SDS011;27468;47.460;19.034;2023-08-06T12:40:44;0.00;;;0.00;;
41799;SDS011;27468;47.460;19.034;2023-08-06T12:43:10;0.10;;;0.10;;
41799;SDS011;27468;47.460;19.034;2023-08-06T12:45:35;0.05;;;0.05;;
41799;SDS011;27468;47.460;19.034;2023-08-06T12:48:00;0.20;;;0.10;;
41799;SDS011;27468;47.460;19.034;2023-08-06T12:50:26;0.10;;;0.10;;
41799;SDS011;27468;47.460;19.034;2023-08-06T12:52:51;0.10;;;0.10;;
41799;SDS011;27468;47.460;19.034;2023-08-06T12:55:17;0.65;;;0.17;;
41799;SDS011;27468;47.460;19.034;2023-08-06T12:57:42;0.05;;;0.05;;
41799;SDS011;27468;47.460;19.034;2023-08-06T13:00:08;0.00;;;0.00;;
41799;SDS011;27468;47.460;19.034;2023-08-06T13:02:33;0.00;;;0.00;;
41799;SDS011;27468;47.460;19.034;2023-08-06T13:04:59;0.17;;;0.17;;
41799;SDS011;27468;47.460;19.034;2023-08-06T13:07:24;0.00;;;0.00;;
41799;SDS011;27468;47.460;19.034;2023-08-06T13:09:50;0.17;;;0.17;;
41799;SDS011;27468;47.460;19.034;2023-08-06T13:12:16;0.13;;;0.13;;
41799;SDS011;27468;47.460;19.034;2023-08-06T13:14:44;0.03;;;0.03;;
41799;SDS011;27468;47.460;19.034;2023-08-06T13:17:09;0.00;;;0.00;;
41799;SDS011;27468;47.460;19.034;2023-08-06T13:19:35;0.28;;;0.28;;
41799;SDS011;27468;47.460;19.034;2023-08-06T13:22:03;0.00;;;0.00;;
41799;SDS011;27468;47.460;19.034;2023-08-06T13:24:30;0.10;;;0.10;;
41799;SDS011;27468;47.460;19.034;2023-08-06T13:26:56;0.05;;;0.05;;
41799;SDS011;27468;47.460;19.034;2023-08-06T13:29:22;0.10;;;0.10;;
41799;SDS011;27468;47.460;19.034;2023-08-06T13:31:47;0.10;;;0.10;;
41799;SDS011;27468;47.460;19.034;2023-08-06T13:34:12;0.20;;;0.20;;
41799;SDS011;27468;47.460;19.034;2023-08-06T13:36:38;0.10;;;0.10;;
41799;SDS011;27468;47.460;19.034;2023-08-06T13:39:03;0.30;;;0.30;;
41799;SDS011;27468;47.460;19.034;2023-08-06T13:41:30;0.32;;;0.32;;
41799;SDS011;27468;47.460;19.034;2023-08-06T13:43:55;0.30;;;0.30;;
41799;SDS011;27468;47.460;19.034;2023-08-06T13:46:21;0.10;;;0.10;;
41799;SDS011;27468;47.460;19.034;2023-08-06T13:48:47;0.20;;;0.20;;
41799;SDS011;27468;47.460;19.034;2023-08-06T13:51:15;0.13;;;0.13;;
41799;SDS011;27468;47.460;19.034;2023-08-06T13:53:41;0.00;;;0.00;;
41799;SDS011;27468;47.460;19.034;2023-08-06T13:56:07;0.80;;;0.28;;
41799;SDS011;27468;47.460;19.034;2023-08-06T13:58:34;0.20;;;0.20;;
41799;SDS011;27468;47.460;19.034;2023-08-06T14:01:00;0.57;;;0.28;;
41799;SDS011;27468;47.460;19.034;2023-08-06T14:03:25;0.10;;;0.10;;
41799;SDS011;27468;47.460;19.034;2023-08-06T14:05:51;0.10;;;0.10;;
41799;SDS011;27468;47.460;19.034;2023-08-06T14:08:17;0.20;;;0.20;;
41799;SDS011;27468;47.460;19.034;2023-08-06T14:10:43;0.28;;;0.28;;
41799;SDS011;27468;47.460;19.034;2023-08-06T14:13:09;0.30;;;0.30;;
41799;SDS011;27468;47.460;19.034;2023-08-06T14:15:35;0.13;;;0.13;;
41799;SDS011;27468;47.460;19.034;2023-08-06T14:18:00;0.10;;;0.10;;
41799;SDS011;27468;47.460;19.034;2023-08-06T14:20:26;0.45;;;0.45;;
41799;SDS011;27468;47.460;19.034;2023-08-06T14:22:51;0.22;;;0.22;;
41799;SDS011;27468;47.460;19.034;2023-08-06T14:25:16;0.57;;;0.57;;
41799;SDS011;27468;47.460;19.034;2023-08-06T14:27:42;0.30;;;0.30;;
41799;SDS011;27468;47.460;19.034;2023-08-06T14:30:07;0.25;;;0.25;;
41799;SDS011;27468;47.460;19.034;2023-08-06T14:32:33;0.40;;;0.40;;
41799;SDS011;27468;47.460;19.034;2023-08-06T14:34:59;0.90;;;0.47;;
41799;SDS011;27468;47.460;19.034;2023-08-06T14:37:25;0.43;;;0.30;;
41799;SDS011;27468;47.460;19.034;2023-08-06T14:39:51;0.25;;;0.25;;
41799;SDS011;27468;47.460;19.034;2023-08-06T14:42:17;0.40;;;0.40;;